sensor_id;sensor_type;location;lat;lon;timestamp;P1;durP1;ratioP1;P2;durP2;ratioP2
73678;SDS011;61978;52.742;16.962;2023-02-28T00:00:26;53.40;;;28.00;;
73678;SDS011;61978;52.742;16.962;2023-02-28T00:02:52;55.40;;;27.70;;
73678;SDS011;61978;52.742;16.962;2023-02-28T00:05:20;47.70;;;26.30;;
73678;SDS011;61978;52.742;16.962;2023-02-28T00:07:47;49.50;;;24.20;;
73678;SDS011;61978;52.742;16.962;2023-02-28T00:10:16;38.70;;;20.90;;
73678;SDS011;61978;52.742;16.962;2023-02-28T00:12:59;40.70;;;22.30;;
73678;SDS011;61978;52.742;16.962;2023-02-28T00:15:25;41.10;;;22.40;;
73678;SDS011;61978;52.742;16.962;2023-02-28T00:17:52;36.60;;;21.50;;
73678;SDS011;61978;52.742;16.962;2023-02-28T00:20:18;42.20;;;22.00;;
73678;SDS011;61978;52.742;16.962;2023-02-28T00:22:47;50.60;;;22.90;;
73678;SDS011;61978;52.742;16.962;2023-02-28T00:25:15;36.70;;;21.80;;
73678;SDS011;61978;52.742;16.962;2023-02-28T00:27:41;43.30;;;22.00;;
73678;SDS011;61978;52.742;16.962;2023-02-28T00:30:09;42.50;;;23.00;;
73678;SDS011;61978;52.742;16.962;2023-02-28T00:32:36;40.20;;;22.30;;
73678;SDS011;61978;52.742;16.962;2023-02-28T00:35:02;40.00;;;22.50;;
73678;SDS011;61978;52.742;16.962;2023-02-28T00:37:28;45.60;;;23.30;;
73678;SDS011;61978;52.742;16.962;2023-02-28T00:39:55;44.60;;;22.50;;
73678;SDS011;61978;52.742;16.962;2023-02-28T00:42:21;43.30;;;23.50;;
73678;SDS011;61978;52.742;16.962;2023-02-28T00:44:48;40.70;;;23.00;;
73678;SDS011;61978;52.742;16.962;2023-02-28T00:47:15;44.90;;;26.20;;
73678;SDS011;61978;52.742;16.962;2023-02-28T00:49:42;44.50;;;25.40;;
73678;SDS011;61978;52.742;16.962;2023-02-28T00:52:08;45.90;;;25.70;;
73678;SDS011;61978;52.742;16.962;2023-02-28T00:54:34;49.20;;;27.50;;
73678;SDS011;61978;52.742;16.962;2023-02-28T00:57:00;55.90;;;30.40;;
73678;SDS011;61978;52.742;16.962;2023-02-28T00:59:26;54.10;;;29.70;;
73678;SDS011;61978;52.742;16.962;2023-02-28T01:01:52;48.50;;;28.10;;
73678;SDS011;61978;52.742;16.962;2023-02-28T01:04:18;54.40;;;31.20;;
73678;SDS011;61978;52.742;16.962;2023-02-28T01:06:44;53.30;;;29.10;;
73678;SDS011;61978;52.742;16.962;2023-02-28T01:09:10;51.20;;;27.70;;
73678;SDS011;61978;52.742;16.962;2023-02-28T01:11:36;61.40;;;30.20;;
73678;SDS011;61978;52.742;16.962;2023-02-28T01:14:03;52.30;;;29.90;;
73678;SDS011;61978;52.742;16.962;2023-02-28T01:16:29;51.70;;;28.10;;
73678;SDS011;61978;52.742;16.962;2023-02-28T01:18:56;55.80;;;29.30;;
73678;SDS011;61978;52.742;16.962;2023-02-28T01:21:22;51.20;;;25.70;;
73678;SDS011;61978;52.742;16.962;2023-02-28T01:23:49;55.10;;;28.70;;
73678;SDS011;61978;52.742;16.962;2023-02-28T01:26:15;51.10;;;26.60;;
73678;SDS011;61978;52.742;16.962;2023-02-28T01:28:42;45.70;;;26.50;;
73678;SDS011;61978;52.742;16.962;2023-02-28T01:31:08;45.10;;;23.70;;
73678;SDS011;61978;52.742;16.962;2023-02-28T01:33:37;45.20;;;24.70;;
73678;SDS011;61978;52.742;16.962;2023-02-28T01:36:14;47.90;;;25.00;;
73678;SDS011;61978;52.742;16.962;2023-02-28T01:38:42;46.80;;;23.70;;
73678;SDS011;61978;52.742;16.962;2023-02-28T01:41:08;48.60;;;24.80;;
73678;SDS011;61978;52.742;16.962;2023-02-28T01:46:11;44.20;;;25.20;;
73678;SDS011;61978;52.742;16.962;2023-02-28T01:48:42;49.20;;;24.60;;
73678;SDS011;61978;52.742;16.962;2023-02-28T01:51:17;44.50;;;25.80;;
73678;SDS011;61978;52.742;16.962;2023-02-28T01:53:48;51.50;;;26.60;;
73678;SDS011;61978;52.742;16.962;2023-02-28T01:56:16;48.20;;;25.80;;
73678;SDS011;61978;52.742;16.962;2023-02-28T01:58:48;57.60;;;27.60;;
73678;SDS011;61978;52.742;16.962;2023-02-28T02:01:15;44.50;;;25.60;;
73678;SDS011;61978;52.742;16.962;2023-02-28T02:03:50;45.70;;;27.40;;
73678;SDS011;61978;52.742;16.962;2023-02-28T02:06:23;56.00;;;30.00;;
73678;SDS011;61978;52.742;16.962;2023-02-28T02:08:50;54.10;;;31.10;;
73678;SDS011;61978;52.742;16.962;2023-02-28T02:11:18;60.20;;;33.50;;
73678;SDS011;61978;52.742;16.962;2023-02-28T02:13:55;63.20;;;33.20;;
73678;SDS011;61978;52.742;16.962;2023-02-28T02:19:09;57.60;;;32.70;;
73678;SDS011;61978;52.742;16.962;2023-02-28T02:27:03;64.10;;;33.30;;
73678;SDS011;61978;52.742;16.962;2023-02-28T02:29:37;68.00;;;35.60;;
73678;SDS011;61978;52.742;16.962;2023-02-28T02:32:24;68.00;;;35.40;;
73678;SDS011;61978;52.742;16.962;2023-02-28T02:39:54;59.40;;;31.90;;
73678;SDS011;61978;52.742;16.962;2023-02-28T02:42:27;60.60;;;31.70;;
73678;SDS011;61978;52.742;16.962;2023-02-28T02:45:01;58.60;;;34.20;;
73678;SDS011;61978;52.742;16.962;2023-02-28T02:47:30;71.30;;;34.10;;
73678;SDS011;61978;52.742;16.962;2023-02-28T02:49:58;59.40;;;33.00;;
73678;SDS011;61978;52.742;16.962;2023-02-28T02:52:37;61.50;;;33.80;;
73678;SDS011;61978;52.742;16.962;2023-02-28T02:55:05;63.20;;;34.90;;
73678;SDS011;61978;52.742;16.962;2023-02-28T02:57:33;65.50;;;34.60;;
73678;SDS011;61978;52.742;16.962;2023-02-28T03:00:02;62.40;;;34.40;;
73678;SDS011;61978;52.742;16.962;2023-02-28T03:02:29;71.10;;;35.90;;
73678;SDS011;61978;52.742;16.962;2023-02-28T03:05:01;59.10;;;32.40;;
73678;SDS011;61978;52.742;16.962;2023-02-28T03:07:28;70.30;;;35.40;;
73678;SDS011;61978;52.742;16.962;2023-02-28T03:09:54;62.40;;;33.80;;
73678;SDS011;61978;52.742;16.962;2023-02-28T03:12:21;70.20;;;37.90;;
73678;SDS011;61978;52.742;16.962;2023-02-28T03:15:08;66.30;;;36.30;;
73678;SDS011;61978;52.742;16.962;2023-02-28T03:18:01;71.80;;;37.40;;
73678;SDS011;61978;52.742;16.962;2023-02-28T03:20:38;65.30;;;34.80;;
73678;SDS011;61978;52.742;16.962;2023-02-28T03:23:13;67.60;;;35.10;;
73678;SDS011;61978;52.742;16.962;2023-02-28T03:25:56;68.10;;;35.70;;
73678;SDS011;61978;52.742;16.962;2023-02-28T03:28:31;70.80;;;37.60;;
73678;SDS011;61978;52.742;16.962;2023-02-28T03:33:50;67.00;;;36.30;;
73678;SDS011;61978;52.742;16.962;2023-02-28T03:36:22;68.50;;;38.90;;
73678;SDS011;61978;52.742;16.962;2023-02-28T03:38:55;73.20;;;40.90;;
73678;SDS011;61978;52.742;16.962;2023-02-28T03:41:22;71.70;;;40.30;;
73678;SDS011;61978;52.742;16.962;2023-02-28T03:43:53;66.90;;;39.20;;
73678;SDS011;61978;52.742;16.962;2023-02-28T03:46:21;82.60;;;43.50;;
73678;SDS011;61978;52.742;16.962;2023-02-28T03:49:04;86.10;;;49.50;;
73678;SDS011;61978;52.742;16.962;2023-02-28T03:51:33;93.20;;;50.20;;
73678;SDS011;61978;52.742;16.962;2023-02-28T03:54:02;94.10;;;51.30;;
73678;SDS011;61978;52.742;16.962;2023-02-28T03:56:32;84.40;;;47.30;;
73678;SDS011;61978;52.742;16.962;2023-02-28T03:59:00;103.40;;;56.60;;
73678;SDS011;61978;52.742;16.962;2023-02-28T04:01:49;99.70;;;51.80;;
73678;SDS011;61978;52.742;16.962;2023-02-28T04:04:14;90.20;;;47.50;;
73678;SDS011;61978;52.742;16.962;2023-02-28T04:06:41;91.70;;;47.70;;
73678;SDS011;61978;52.742;16.962;2023-02-28T04:09:08;91.90;;;50.50;;
73678;SDS011;61978;52.742;16.962;2023-02-28T04:14:04;91.70;;;50.00;;
73678;SDS011;61978;52.742;16.962;2023-02-28T04:16:31;91.60;;;51.40;;
73678;SDS011;61978;52.742;16.962;2023-02-28T04:18:57;92.60;;;50.20;;
73678;SDS011;61978;52.742;16.962;2023-02-28T04:21:28;98.40;;;50.70;;
73678;SDS011;61978;52.742;16.962;2023-02-28T04:23:54;109.20;;;58.70;;
73678;SDS011;61978;52.742;16.962;2023-02-28T04:26:21;98.90;;;51.60;;
73678;SDS011;61978;52.742;16.962;2023-02-28T04:28:47;84.40;;;35.90;;
73678;SDS011;61978;52.742;16.962;2023-02-28T04:31:13;72.70;;;31.60;;
73678;SDS011;61978;52.742;16.962;2023-02-28T04:33:41;72.70;;;32.00;;
73678;SDS011;61978;52.742;16.962;2023-02-28T04:36:08;72.60;;;37.80;;
73678;SDS011;61978;52.742;16.962;2023-02-28T04:38:35;60.90;;;30.00;;
73678;SDS011;61978;52.742;16.962;2023-02-28T04:41:01;70.10;;;31.50;;
73678;SDS011;61978;52.742;16.962;2023-02-28T04:43:27;81.90;;;43.50;;
73678;SDS011;61978;52.742;16.962;2023-02-28T04:45:58;85.30;;;45.80;;
73678;SDS011;61978;52.742;16.962;2023-02-28T04:48:24;87.20;;;46.10;;
73678;SDS011;61978;52.742;16.962;2023-02-28T04:50:51;86.60;;;43.70;;
73678;SDS011;61978;52.742;16.962;2023-02-28T04:53:17;84.10;;;44.80;;
73678;SDS011;61978;52.742;16.962;2023-02-28T04:55:44;70.40;;;40.90;;
73678;SDS011;61978;52.742;16.962;2023-02-28T04:58:13;84.50;;;43.40;;
73678;SDS011;61978;52.742;16.962;2023-02-28T05:00:39;76.30;;;43.10;;
73678;SDS011;61978;52.742;16.962;2023-02-28T05:03:05;89.30;;;43.30;;
73678;SDS011;61978;52.742;16.962;2023-02-28T05:05:31;77.70;;;42.00;;
73678;SDS011;61978;52.742;16.962;2023-02-28T05:07:57;71.10;;;42.70;;
73678;SDS011;61978;52.742;16.962;2023-02-28T05:10:23;82.60;;;46.00;;
73678;SDS011;61978;52.742;16.962;2023-02-28T05:12:48;80.40;;;44.90;;
73678;SDS011;61978;52.742;16.962;2023-02-28T05:15:15;85.40;;;45.40;;
73678;SDS011;61978;52.742;16.962;2023-02-28T05:17:41;81.70;;;45.00;;
73678;SDS011;61978;52.742;16.962;2023-02-28T05:20:08;75.40;;;42.20;;
73678;SDS011;61978;52.742;16.962;2023-02-28T05:22:36;75.30;;;42.00;;
73678;SDS011;61978;52.742;16.962;2023-02-28T05:25:03;65.80;;;38.90;;
73678;SDS011;61978;52.742;16.962;2023-02-28T05:27:33;74.10;;;40.40;;
73678;SDS011;61978;52.742;16.962;2023-02-28T05:29:59;75.00;;;40.30;;
73678;SDS011;61978;52.742;16.962;2023-02-28T05:32:25;80.30;;;39.30;;
73678;SDS011;61978;52.742;16.962;2023-02-28T05:34:51;78.80;;;40.80;;
73678;SDS011;61978;52.742;16.962;2023-02-28T05:37:17;74.90;;;40.20;;
73678;SDS011;61978;52.742;16.962;2023-02-28T05:39:45;69.90;;;39.20;;
73678;SDS011;61978;52.742;16.962;2023-02-28T05:42:12;73.20;;;41.00;;
73678;SDS011;61978;52.742;16.962;2023-02-28T05:44:38;72.40;;;39.80;;
73678;SDS011;61978;52.742;16.962;2023-02-28T05:47:03;73.90;;;38.80;;
73678;SDS011;61978;52.742;16.962;2023-02-28T05:49:29;67.80;;;38.40;;
73678;SDS011;61978;52.742;16.962;2023-02-28T05:51:56;76.30;;;39.00;;
73678;SDS011;61978;52.742;16.962;2023-02-28T05:54:22;63.50;;;37.00;;
73678;SDS011;61978;52.742;16.962;2023-02-28T05:56:48;65.00;;;37.60;;
73678;SDS011;61978;52.742;16.962;2023-02-28T05:59:14;73.60;;;36.40;;
73678;SDS011;61978;52.742;16.962;2023-02-28T06:01:40;66.00;;;36.50;;
73678;SDS011;61978;52.742;16.962;2023-02-28T06:04:08;72.30;;;35.40;;
73678;SDS011;61978;52.742;16.962;2023-02-28T06:06:34;71.00;;;35.90;;
73678;SDS011;61978;52.742;16.962;2023-02-28T06:09:01;77.30;;;36.40;;
73678;SDS011;61978;52.742;16.962;2023-02-28T06:11:28;71.60;;;35.70;;
73678;SDS011;61978;52.742;16.962;2023-02-28T06:13:54;64.40;;;35.30;;
73678;SDS011;61978;52.742;16.962;2023-02-28T06:16:21;67.50;;;32.40;;
73678;SDS011;61978;52.742;16.962;2023-02-28T06:18:48;66.20;;;34.30;;
73678;SDS011;61978;52.742;16.962;2023-02-28T06:21:14;61.30;;;34.20;;
73678;SDS011;61978;52.742;16.962;2023-02-28T06:23:40;64.00;;;34.40;;
73678;SDS011;61978;52.742;16.962;2023-02-28T06:26:06;59.90;;;32.00;;
73678;SDS011;61978;52.742;16.962;2023-02-28T06:28:32;68.70;;;33.00;;
73678;SDS011;61978;52.742;16.962;2023-02-28T06:30:58;61.20;;;32.10;;
73678;SDS011;61978;52.742;16.962;2023-02-28T06:33:23;59.60;;;33.80;;
73678;SDS011;61978;52.742;16.962;2023-02-28T06:35:50;63.00;;;33.90;;
73678;SDS011;61978;52.742;16.962;2023-02-28T06:38:17;75.20;;;42.30;;
73678;SDS011;61978;52.742;16.962;2023-02-28T06:40:44;64.50;;;35.90;;
73678;SDS011;61978;52.742;16.962;2023-02-28T06:43:10;66.60;;;38.90;;
73678;SDS011;61978;52.742;16.962;2023-02-28T06:45:42;75.70;;;37.30;;
73678;SDS011;61978;52.742;16.962;2023-02-28T06:48:09;102.10;;;46.40;;
73678;SDS011;61978;52.742;16.962;2023-02-28T06:50:36;145.90;;;67.40;;
73678;SDS011;61978;52.742;16.962;2023-02-28T06:53:02;101.00;;;54.20;;
73678;SDS011;61978;52.742;16.962;2023-02-28T06:55:28;111.20;;;53.30;;
73678;SDS011;61978;52.742;16.962;2023-02-28T06:57:54;124.40;;;62.70;;
73678;SDS011;61978;52.742;16.962;2023-02-28T07:00:23;125.70;;;64.90;;
73678;SDS011;61978;52.742;16.962;2023-02-28T07:02:51;99.40;;;55.70;;
73678;SDS011;61978;52.742;16.962;2023-02-28T07:05:17;89.20;;;51.20;;
73678;SDS011;61978;52.742;16.962;2023-02-28T07:07:43;106.40;;;56.40;;
73678;SDS011;61978;52.742;16.962;2023-02-28T07:10:12;101.20;;;55.30;;
73678;SDS011;61978;52.742;16.962;2023-02-28T07:12:39;98.70;;;54.50;;
73678;SDS011;61978;52.742;16.962;2023-02-28T07:15:06;103.60;;;54.10;;
73678;SDS011;61978;52.742;16.962;2023-02-28T07:17:32;141.20;;;71.60;;
73678;SDS011;61978;52.742;16.962;2023-02-28T07:19:58;138.30;;;72.80;;
73678;SDS011;61978;52.742;16.962;2023-02-28T07:22:24;159.20;;;80.40;;
73678;SDS011;61978;52.742;16.962;2023-02-28T07:24:50;165.10;;;81.80;;
73678;SDS011;61978;52.742;16.962;2023-02-28T07:27:17;156.90;;;79.50;;
73678;SDS011;61978;52.742;16.962;2023-02-28T07:32:17;137.30;;;65.00;;
73678;SDS011;61978;52.742;16.962;2023-02-28T07:34:44;136.10;;;66.70;;
73678;SDS011;61978;52.742;16.962;2023-02-28T07:37:10;131.00;;;66.50;;
73678;SDS011;61978;52.742;16.962;2023-02-28T07:39:36;122.20;;;61.40;;
73678;SDS011;61978;52.742;16.962;2023-02-28T07:42:05;128.40;;;60.90;;
73678;SDS011;61978;52.742;16.962;2023-02-28T07:44:32;112.10;;;56.00;;
73678;SDS011;61978;52.742;16.962;2023-02-28T07:46:58;114.20;;;53.40;;
73678;SDS011;61978;52.742;16.962;2023-02-28T07:49:24;102.00;;;53.00;;
73678;SDS011;61978;52.742;16.962;2023-02-28T07:51:50;93.40;;;47.00;;
73678;SDS011;61978;52.742;16.962;2023-02-28T07:54:15;80.00;;;42.30;;
73678;SDS011;61978;52.742;16.962;2023-02-28T07:56:41;75.40;;;39.50;;
73678;SDS011;61978;52.742;16.962;2023-02-28T07:59:07;67.70;;;35.90;;
73678;SDS011;61978;52.742;16.962;2023-02-28T08:01:33;65.20;;;36.80;;
73678;SDS011;61978;52.742;16.962;2023-02-28T08:03:58;63.20;;;35.10;;
73678;SDS011;61978;52.742;16.962;2023-02-28T08:06:24;54.80;;;33.70;;
73678;SDS011;61978;52.742;16.962;2023-02-28T08:08:52;62.20;;;37.50;;
73678;SDS011;61978;52.742;16.962;2023-02-28T08:11:18;62.60;;;34.10;;
73678;SDS011;61978;52.742;16.962;2023-02-28T08:13:45;60.50;;;36.20;;
73678;SDS011;61978;52.742;16.962;2023-02-28T08:16:11;56.50;;;32.00;;
73678;SDS011;61978;52.742;16.962;2023-02-28T08:18:39;53.80;;;30.20;;
73678;SDS011;61978;52.742;16.962;2023-02-28T08:21:06;52.20;;;31.70;;
73678;SDS011;61978;52.742;16.962;2023-02-28T08:23:32;46.50;;;28.70;;
73678;SDS011;61978;52.742;16.962;2023-02-28T08:25:58;46.60;;;26.70;;
73678;SDS011;61978;52.742;16.962;2023-02-28T08:28:24;38.90;;;23.50;;
73678;SDS011;61978;52.742;16.962;2023-02-28T08:30:50;45.40;;;28.10;;
73678;SDS011;61978;52.742;16.962;2023-02-28T08:33:17;46.90;;;26.60;;
73678;SDS011;61978;52.742;16.962;2023-02-28T08:35:43;47.40;;;25.80;;
73678;SDS011;61978;52.742;16.962;2023-02-28T08:38:09;44.40;;;26.50;;
73678;SDS011;61978;52.742;16.962;2023-02-28T08:40:35;44.40;;;26.60;;
73678;SDS011;61978;52.742;16.962;2023-02-28T08:43:07;48.00;;;27.20;;
73678;SDS011;61978;52.742;16.962;2023-02-28T08:45:42;41.30;;;26.20;;
73678;SDS011;61978;52.742;16.962;2023-02-28T08:48:08;42.60;;;25.00;;
73678;SDS011;61978;52.742;16.962;2023-02-28T08:50:34;43.70;;;25.50;;
73678;SDS011;61978;52.742;16.962;2023-02-28T08:53:00;41.30;;;25.10;;
73678;SDS011;61978;52.742;16.962;2023-02-28T08:55:26;44.50;;;26.20;;
73678;SDS011;61978;52.742;16.962;2023-02-28T08:57:53;42.10;;;23.90;;
73678;SDS011;61978;52.742;16.962;2023-02-28T09:00:20;42.20;;;22.30;;
73678;SDS011;61978;52.742;16.962;2023-02-28T09:02:46;31.00;;;19.10;;
73678;SDS011;61978;52.742;16.962;2023-02-28T09:05:12;30.90;;;19.90;;
73678;SDS011;61978;52.742;16.962;2023-02-28T09:07:38;35.00;;;20.00;;
73678;SDS011;61978;52.742;16.962;2023-02-28T09:10:04;34.90;;;20.80;;
73678;SDS011;61978;52.742;16.962;2023-02-28T09:12:32;35.20;;;17.90;;
73678;SDS011;61978;52.742;16.962;2023-02-28T09:14:58;32.50;;;18.00;;
73678;SDS011;61978;52.742;16.962;2023-02-28T09:17:24;36.10;;;17.60;;
73678;SDS011;61978;52.742;16.962;2023-02-28T09:19:50;28.00;;;16.20;;
73678;SDS011;61978;52.742;16.962;2023-02-28T09:22:16;25.80;;;13.40;;
73678;SDS011;61978;52.742;16.962;2023-02-28T09:24:41;19.20;;;9.20;;
73678;SDS011;61978;52.742;16.962;2023-02-28T09:27:07;18.30;;;9.20;;
73678;SDS011;61978;52.742;16.962;2023-02-28T09:29:33;16.90;;;10.60;;
73678;SDS011;61978;52.742;16.962;2023-02-28T09:32:00;21.30;;;11.00;;
73678;SDS011;61978;52.742;16.962;2023-02-28T09:34:26;17.10;;;9.50;;
73678;SDS011;61978;52.742;16.962;2023-02-28T09:36:52;13.80;;;7.50;;
73678;SDS011;61978;52.742;16.962;2023-02-28T09:39:20;12.20;;;7.90;;
73678;SDS011;61978;52.742;16.962;2023-02-28T09:41:48;8.60;;;4.90;;
73678;SDS011;61978;52.742;16.962;2023-02-28T09:44:19;11.60;;;7.20;;
73678;SDS011;61978;52.742;16.962;2023-02-28T09:46:47;12.00;;;7.70;;
73678;SDS011;61978;52.742;16.962;2023-02-28T09:49:14;10.20;;;6.10;;
73678;SDS011;61978;52.742;16.962;2023-02-28T09:54:18;18.70;;;10.40;;
73678;SDS011;61978;52.742;16.962;2023-02-28T09:56:45;22.30;;;12.30;;
73678;SDS011;61978;52.742;16.962;2023-02-28T09:59:37;14.10;;;10.40;;
73678;SDS011;61978;52.742;16.962;2023-02-28T10:04:36;168.60;;;104.40;;
73678;SDS011;61978;52.742;16.962;2023-02-28T10:07:12;11.70;;;7.10;;
73678;SDS011;61978;52.742;16.962;2023-02-28T10:09:43;86.70;;;68.50;;
73678;SDS011;61978;52.742;16.962;2023-02-28T10:12:10;12.40;;;5.80;;
73678;SDS011;61978;52.742;16.962;2023-02-28T10:14:37;14.50;;;7.50;;
73678;SDS011;61978;52.742;16.962;2023-02-28T10:17:07;16.30;;;9.20;;
73678;SDS011;61978;52.742;16.962;2023-02-28T10:24:53;33.30;;;19.90;;
73678;SDS011;61978;52.742;16.962;2023-02-28T10:27:20;14.10;;;7.00;;
73678;SDS011;61978;52.742;16.962;2023-02-28T10:29:47;12.60;;;6.70;;
73678;SDS011;61978;52.742;16.962;2023-02-28T10:32:17;12.70;;;6.60;;
73678;SDS011;61978;52.742;16.962;2023-02-28T10:34:43;15.00;;;6.60;;
73678;SDS011;61978;52.742;16.962;2023-02-28T10:37:10;16.80;;;7.80;;
73678;SDS011;61978;52.742;16.962;2023-02-28T10:39:37;13.80;;;8.60;;
73678;SDS011;61978;52.742;16.962;2023-02-28T10:42:04;15.50;;;7.60;;
73678;SDS011;61978;52.742;16.962;2023-02-28T10:44:31;8.80;;;5.10;;
73678;SDS011;61978;52.742;16.962;2023-02-28T10:46:56;13.50;;;6.30;;
73678;SDS011;61978;52.742;16.962;2023-02-28T10:49:25;10.20;;;6.40;;
73678;SDS011;61978;52.742;16.962;2023-02-28T10:51:54;9.80;;;5.00;;
73678;SDS011;61978;52.742;16.962;2023-02-28T10:54:22;9.50;;;4.20;;
73678;SDS011;61978;52.742;16.962;2023-02-28T10:57:35;13.00;;;6.90;;
73678;SDS011;61978;52.742;16.962;2023-02-28T10:59:35;92.50;;;35.70;;
73678;SDS011;61978;52.742;16.962;2023-02-28T11:02:02;9.60;;;6.00;;
73678;SDS011;61978;52.742;16.962;2023-02-28T11:07:19;10.90;;;6.30;;
73678;SDS011;61978;52.742;16.962;2023-02-28T11:09:46;15.30;;;7.10;;
73678;SDS011;61978;52.742;16.962;2023-02-28T11:12:26;12.20;;;6.90;;
73678;SDS011;61978;52.742;16.962;2023-02-28T11:15:02;14.10;;;6.80;;
73678;SDS011;61978;52.742;16.962;2023-02-28T11:17:30;13.40;;;7.10;;
73678;SDS011;61978;52.742;16.962;2023-02-28T11:20:06;13.60;;;7.10;;
73678;SDS011;61978;52.742;16.962;2023-02-28T11:22:35;12.30;;;7.20;;
73678;SDS011;61978;52.742;16.962;2023-02-28T11:25:15;10.50;;;6.50;;
73678;SDS011;61978;52.742;16.962;2023-02-28T11:27:46;12.20;;;7.10;;
73678;SDS011;61978;52.742;16.962;2023-02-28T11:32:59;12.20;;;6.90;;
73678;SDS011;61978;52.742;16.962;2023-02-28T11:35:33;12.50;;;7.70;;
73678;SDS011;61978;52.742;16.962;2023-02-28T11:38:02;12.70;;;7.40;;
73678;SDS011;61978;52.742;16.962;2023-02-28T11:40:36;17.20;;;8.60;;
73678;SDS011;61978;52.742;16.962;2023-02-28T11:45:56;20.00;;;8.60;;
73678;SDS011;61978;52.742;16.962;2023-02-28T11:48:29;13.90;;;7.80;;
73678;SDS011;61978;52.742;16.962;2023-02-28T11:53:50;14.30;;;8.80;;
73678;SDS011;61978;52.742;16.962;2023-02-28T11:56:21;19.00;;;9.70;;
73678;SDS011;61978;52.742;16.962;2023-02-28T12:01:47;13.30;;;8.70;;
73678;SDS011;61978;52.742;16.962;2023-02-28T12:07:00;16.20;;;8.80;;
73678;SDS011;61978;52.742;16.962;2023-02-28T12:10:04;17.20;;;8.80;;
73678;SDS011;61978;52.742;16.962;2023-02-28T12:17:38;16.70;;;8.70;;
73678;SDS011;61978;52.742;16.962;2023-02-28T12:20:31;12.50;;;8.20;;
73678;SDS011;61978;52.742;16.962;2023-02-28T12:23:03;14.50;;;8.20;;
73678;SDS011;61978;52.742;16.962;2023-02-28T12:28:20;16.30;;;9.30;;
73678;SDS011;61978;52.742;16.962;2023-02-28T12:30:52;13.90;;;8.90;;
73678;SDS011;61978;52.742;16.962;2023-02-28T12:33:21;14.40;;;8.60;;
73678;SDS011;61978;52.742;16.962;2023-02-28T12:38:19;15.30;;;8.30;;
73678;SDS011;61978;52.742;16.962;2023-02-28T12:40:53;12.80;;;8.10;;
73678;SDS011;61978;52.742;16.962;2023-02-28T12:43:21;20.20;;;9.50;;
73678;SDS011;61978;52.742;16.962;2023-02-28T12:45:59;31.20;;;12.70;;
73678;SDS011;61978;52.742;16.962;2023-02-28T12:48:36;20.90;;;10.90;;
73678;SDS011;61978;52.742;16.962;2023-02-28T12:51:04;133.40;;;68.40;;
73678;SDS011;61978;52.742;16.962;2023-02-28T12:53:42;13.70;;;8.20;;
73678;SDS011;61978;52.742;16.962;2023-02-28T12:58:39;16.90;;;9.40;;
73678;SDS011;61978;52.742;16.962;2023-02-28T13:01:15;15.70;;;10.20;;
73678;SDS011;61978;52.742;16.962;2023-02-28T13:09:09;20.10;;;13.10;;
73678;SDS011;61978;52.742;16.962;2023-02-28T13:11:40;15.70;;;8.90;;
73678;SDS011;61978;52.742;16.962;2023-02-28T13:14:16;14.80;;;8.10;;
73678;SDS011;61978;52.742;16.962;2023-02-28T13:16:51;10.00;;;7.20;;
73678;SDS011;61978;52.742;16.962;2023-02-28T13:19:18;13.10;;;7.10;;
73678;SDS011;61978;52.742;16.962;2023-02-28T13:21:45;13.00;;;6.90;;
73678;SDS011;61978;52.742;16.962;2023-02-28T13:24:35;11.30;;;5.90;;
73678;SDS011;61978;52.742;16.962;2023-02-28T13:34:37;14.40;;;7.30;;
73678;SDS011;61978;52.742;16.962;2023-02-28T13:39:46;12.30;;;6.60;;
73678;SDS011;61978;52.742;16.962;2023-02-28T13:45:33;10.40;;;6.00;;
73678;SDS011;61978;52.742;16.962;2023-02-28T13:50:15;9.60;;;6.20;;
73678;SDS011;61978;52.742;16.962;2023-02-28T13:52:45;7.00;;;4.70;;
73678;SDS011;61978;52.742;16.962;2023-02-28T13:57:49;11.70;;;5.30;;
73678;SDS011;61978;52.742;16.962;2023-02-28T14:00:35;9.90;;;5.30;;
73678;SDS011;61978;52.742;16.962;2023-02-28T14:05:43;9.20;;;5.30;;
73678;SDS011;61978;52.742;16.962;2023-02-28T14:08:16;8.90;;;4.10;;
73678;SDS011;61978;52.742;16.962;2023-02-28T14:10:45;8.60;;;4.70;;
73678;SDS011;61978;52.742;16.962;2023-02-28T14:13:13;8.60;;;4.80;;
73678;SDS011;61978;52.742;16.962;2023-02-28T14:15:49;10.20;;;4.20;;
73678;SDS011;61978;52.742;16.962;2023-02-28T14:18:23;13.10;;;7.40;;
73678;SDS011;61978;52.742;16.962;2023-02-28T14:20:52;8.20;;;4.80;;
73678;SDS011;61978;52.742;16.962;2023-02-28T14:29:02;12.10;;;5.80;;
73678;SDS011;61978;52.742;16.962;2023-02-28T14:31:29;11.80;;;6.30;;
73678;SDS011;61978;52.742;16.962;2023-02-28T14:34:04;13.30;;;5.60;;
73678;SDS011;61978;52.742;16.962;2023-02-28T14:36:36;10.50;;;5.80;;
73678;SDS011;61978;52.742;16.962;2023-02-28T14:39:17;9.50;;;5.60;;
73678;SDS011;61978;52.742;16.962;2023-02-28T14:41:45;10.60;;;5.10;;
73678;SDS011;61978;52.742;16.962;2023-02-28T14:44:15;8.80;;;4.10;;
73678;SDS011;61978;52.742;16.962;2023-02-28T14:46:42;9.70;;;4.50;;
73678;SDS011;61978;52.742;16.962;2023-02-28T14:49:27;7.60;;;4.30;;
73678;SDS011;61978;52.742;16.962;2023-02-28T14:52:07;10.20;;;4.30;;
73678;SDS011;61978;52.742;16.962;2023-02-28T14:54:37;4.70;;;3.50;;
73678;SDS011;61978;52.742;16.962;2023-02-28T14:57:03;6.40;;;3.70;;
73678;SDS011;61978;52.742;16.962;2023-02-28T14:59:32;12.50;;;4.90;;
73678;SDS011;61978;52.742;16.962;2023-02-28T15:05:00;7.40;;;4.50;;
73678;SDS011;61978;52.742;16.962;2023-02-28T15:07:26;8.00;;;3.80;;
73678;SDS011;61978;52.742;16.962;2023-02-28T15:12:39;10.50;;;4.50;;
73678;SDS011;61978;52.742;16.962;2023-02-28T15:15:13;6.20;;;3.80;;
73678;SDS011;61978;52.742;16.962;2023-02-28T15:17:39;6.70;;;4.00;;
73678;SDS011;61978;52.742;16.962;2023-02-28T15:20:10;6.90;;;4.30;;
73678;SDS011;61978;52.742;16.962;2023-02-28T15:22:37;10.00;;;4.70;;
73678;SDS011;61978;52.742;16.962;2023-02-28T15:25:03;7.40;;;4.40;;
73678;SDS011;61978;52.742;16.962;2023-02-28T15:27:32;9.90;;;4.30;;
73678;SDS011;61978;52.742;16.962;2023-02-28T15:29:59;7.00;;;4.70;;
73678;SDS011;61978;52.742;16.962;2023-02-28T15:32:27;7.00;;;4.00;;
73678;SDS011;61978;52.742;16.962;2023-02-28T15:34:54;6.40;;;4.00;;
73678;SDS011;61978;52.742;16.962;2023-02-28T15:37:38;8.60;;;5.10;;
73678;SDS011;61978;52.742;16.962;2023-02-28T15:40:12;6.80;;;4.30;;
73678;SDS011;61978;52.742;16.962;2023-02-28T15:42:39;9.00;;;4.70;;
73678;SDS011;61978;52.742;16.962;2023-02-28T15:45:26;7.60;;;4.30;;
73678;SDS011;61978;52.742;16.962;2023-02-28T15:47:52;14.60;;;5.50;;
73678;SDS011;61978;52.742;16.962;2023-02-28T15:50:19;8.80;;;4.40;;
73678;SDS011;61978;52.742;16.962;2023-02-28T15:52:45;7.50;;;4.20;;
73678;SDS011;61978;52.742;16.962;2023-02-28T15:55:19;7.80;;;4.50;;
73678;SDS011;61978;52.742;16.962;2023-02-28T15:57:47;7.50;;;4.70;;
73678;SDS011;61978;52.742;16.962;2023-02-28T16:00:15;8.50;;;4.50;;
73678;SDS011;61978;52.742;16.962;2023-02-28T16:02:41;9.00;;;5.00;;
73678;SDS011;61978;52.742;16.962;2023-02-28T16:07:36;10.40;;;4.70;;